createdAt,value
2022-11-13T00:00:25.630Z,36.28
2022-11-13T00:03:14.019Z,36.03
2022-11-13T00:06:01.496Z,37.78
2022-11-13T00:08:49.277Z,37.53
2022-11-13T00:11:36.269Z,34.95
2022-11-13T00:14:23.403Z,32.58
2022-11-13T00:17:10.452Z,40.00
2022-11-13T00:19:58.955Z,37.38
2022-11-13T00:22:46.606Z,35.50
2022-11-13T00:25:36.643Z,37.20
2022-11-13T00:28:23.904Z,35.17
2022-11-13T00:31:12.373Z,36.08
2022-11-13T00:37:09.469Z,36.45
2022-11-13T00:39:59.651Z,37.80
2022-11-13T00:42:46.781Z,35.95
2022-11-13T00:45:33.896Z,34.50
2022-11-13T00:48:21.578Z,36.63
2022-11-13T00:51:08.934Z,33.90
2022-11-13T00:53:57.274Z,32.35
2022-11-13T00:56:44.750Z,31.77
2022-11-13T00:59:31.712Z,35.88
2022-11-13T01:02:18.659Z,34.65
2022-11-13T01:05:06.335Z,35.17
2022-11-13T01:07:53.422Z,36.00
2022-11-13T01:10:45.578Z,36.22
2022-11-13T01:13:34.600Z,36.80
2022-11-13T01:16:23.683Z,37.65
2022-11-13T01:19:10.719Z,35.72
2022-11-13T01:21:57.707Z,34.45
2022-11-13T01:24:44.730Z,38.03
2022-11-13T01:27:33.546Z,37.50
2022-11-13T01:30:21.040Z,35.20
2022-11-13T01:33:08.124Z,34.00
2022-11-13T01:36:00.647Z,34.22
2022-11-13T01:38:48.302Z,35.92
2022-11-13T01:41:35.974Z,33.67
2022-11-13T01:44:24.533Z,35.90
2022-11-13T01:47:13.013Z,34.72
2022-11-13T01:50:03.926Z,34.72
2022-11-13T01:53:15.246Z,35.53
2022-11-13T01:56:09.787Z,32.05
2022-11-13T01:59:38.071Z,32.70
2022-11-13T02:02:26.521Z,30.48
2022-11-13T02:05:46.918Z,31.00
2022-11-13T02:08:37.425Z,31.67
2022-11-13T02:11:27.904Z,28.90
2022-11-13T02:14:23.332Z,30.00
2022-11-13T02:17:22.551Z,29.27
2022-11-13T02:20:12.492Z,28.90
2022-11-13T02:23:09.594Z,31.65
2022-11-13T02:25:58.492Z,29.77
2022-11-13T02:28:45.764Z,31.15
2022-11-13T02:31:32.885Z,30.95
2022-11-13T02:34:19.708Z,30.55
2022-11-13T02:37:06.639Z,28.88
2022-11-13T02:39:53.420Z,29.63
2022-11-13T02:42:41.808Z,27.35
2022-11-13T02:45:29.214Z,29.92
2022-11-13T02:48:16.749Z,30.83
2022-11-13T02:51:04.288Z,27.48
2022-11-13T02:53:51.846Z,29.48
2022-11-13T02:56:51.296Z,29.48
2022-11-13T02:59:39.685Z,30.08
2022-11-13T03:02:27.141Z,31.40
2022-11-13T03:05:14.341Z,30.92
2022-11-13T03:08:01.463Z,29.13
2022-11-13T03:10:48.363Z,30.13
2022-11-13T03:13:35.331Z,25.10
2022-11-13T03:16:23.715Z,23.00
2022-11-13T03:19:11.214Z,29.77
2022-11-13T03:21:58.423Z,27.83
2022-11-13T03:24:46.039Z,26.73
2022-11-13T03:27:37.140Z,27.88
2022-11-13T03:30:23.837Z,26.13
2022-11-13T03:33:12.270Z,28.67
2022-11-13T03:35:59.958Z,30.15
2022-11-13T03:38:46.946Z,26.65
2022-11-13T03:41:34.177Z,27.10
2022-11-13T03:44:21.381Z,28.20
2022-11-13T03:47:08.486Z,30.33
2022-11-13T03:49:58.160Z,26.23
2022-11-13T03:52:45.148Z,24.42
2022-11-13T03:55:32.288Z,27.52
2022-11-13T03:58:19.356Z,27.42
2022-11-13T04:01:06.372Z,28.17
2022-11-13T04:03:53.420Z,29.73
2022-11-13T04:06:41.612Z,30.27
2022-11-13T04:09:28.748Z,29.17
2022-11-13T04:12:15.665Z,30.05
2022-11-13T04:15:02.626Z,29.40
2022-11-13T04:17:50.443Z,27.83
2022-11-13T04:20:37.784Z,27.08
2022-11-13T04:23:26.051Z,27.23
2022-11-13T04:26:13.270Z,26.60
2022-11-13T04:29:00.036Z,28.20
2022-11-13T04:31:47.326Z,25.40
2022-11-13T04:34:34.046Z,26.63
2022-11-13T04:37:21.011Z,25.35
2022-11-13T04:40:11.389Z,27.50
2022-11-13T04:42:57.550Z,26.65
2022-11-13T04:45:44.755Z,27.02
2022-11-13T04:48:31.980Z,29.55
2022-11-13T04:51:18.846Z,25.67
2022-11-13T04:54:05.798Z,27.55
2022-11-13T04:56:54.047Z,24.25
2022-11-13T04:59:41.444Z,28.73
2022-11-13T05:05:55.569Z,24.80
2022-11-13T05:08:42.546Z,21.80
2022-11-13T05:11:29.443Z,22.98
2022-11-13T05:14:18.185Z,23.80
2022-11-13T05:17:05.465Z,22.13
2022-11-13T05:19:52.919Z,21.90
2022-11-13T05:22:40.115Z,24.13
2022-11-13T05:25:27.430Z,23.83
2022-11-13T05:28:14.615Z,25.80
2022-11-13T05:31:07.523Z,24.77
2022-11-13T05:33:55.163Z,27.02
2022-11-13T05:36:42.208Z,24.10
2022-11-13T05:39:29.429Z,24.30
2022-11-13T05:42:16.253Z,27.40
2022-11-13T05:45:03.298Z,28.88
2022-11-13T05:47:51.633Z,43.60
2022-11-13T05:50:38.305Z,27.73
2022-11-13T05:53:25.629Z,24.25
2022-11-13T05:56:14.455Z,27.33
2022-11-13T05:59:02.951Z,30.75
2022-11-13T06:01:50.461Z,23.70
2022-11-13T06:04:38.905Z,25.35
2022-11-13T06:07:25.568Z,28.52
2022-11-13T06:10:13.339Z,26.48
2022-11-13T06:12:59.938Z,27.85
2022-11-13T06:15:46.928Z,25.98
2022-11-13T06:18:34.689Z,29.98
2022-11-13T06:21:25.387Z,24.95
2022-11-13T06:24:13.781Z,24.25
2022-11-13T06:27:01.022Z,25.50
2022-11-13T06:29:48.388Z,24.83
2022-11-13T06:32:35.282Z,22.60
2022-11-13T06:35:22.397Z,23.60
2022-11-13T06:38:10.482Z,24.63
2022-11-13T06:40:58.379Z,23.05
2022-11-13T06:43:45.844Z,21.27
2022-11-13T06:46:33.205Z,20.10
2022-11-13T06:49:20.458Z,21.20
2022-11-13T06:52:07.583Z,21.70
2022-11-13T06:54:56.020Z,20.88
2022-11-13T06:57:43.439Z,20.10
2022-11-13T07:00:36.181Z,18.83
2022-11-13T07:03:26.663Z,21.58
2022-11-13T07:06:15.234Z,20.33
2022-11-13T07:09:02.311Z,19.90
2022-11-13T07:11:50.831Z,22.77
2022-11-13T07:14:38.605Z,22.02
2022-11-13T07:17:25.779Z,18.98
2022-11-13T07:20:13.091Z,19.83
2022-11-13T07:23:02.348Z,20.85
2022-11-13T07:25:49.508Z,22.23
2022-11-13T07:28:38.080Z,23.08
2022-11-13T07:31:25.272Z,21.25
2022-11-13T07:34:11.989Z,21.83
2022-11-13T07:36:59.154Z,17.73
2022-11-13T07:39:45.968Z,19.52
2022-11-13T07:42:33.121Z,17.98
2022-11-13T07:45:21.483Z,20.80
2022-11-13T07:48:08.308Z,20.27
2022-11-13T07:50:55.695Z,22.23
2022-11-13T07:53:42.954Z,21.58
2022-11-13T07:56:30.108Z,18.88
2022-11-13T07:59:17.186Z,20.80
2022-11-13T08:02:05.445Z,20.40
2022-11-13T08:04:52.621Z,23.50
2022-11-13T08:07:40.015Z,19.58
2022-11-13T08:10:27.665Z,22.50
2022-11-13T08:13:14.816Z,21.60
2022-11-13T08:16:02.079Z,21.08
2022-11-13T08:18:50.812Z,17.50
2022-11-13T08:21:45.203Z,18.00
2022-11-13T08:24:32.895Z,26.50
2022-11-13T08:27:20.092Z,20.45
2022-11-13T08:30:08.552Z,18.50
2022-11-13T08:32:55.858Z,18.52
2022-11-13T08:35:43.947Z,15.23
2022-11-13T08:38:31.484Z,13.70
2022-11-13T08:41:18.702Z,11.73
2022-11-13T08:44:05.943Z,14.88
2022-11-13T08:46:52.868Z,16.05
2022-11-13T08:49:39.605Z,14.85
2022-11-13T08:52:27.847Z,15.50
2022-11-13T08:55:14.712Z,13.32
2022-11-13T08:58:02.444Z,13.93
2022-11-13T09:00:49.909Z,14.00
2022-11-13T09:03:37.478Z,14.50
2022-11-13T09:06:24.519Z,14.52
2022-11-13T09:09:13.384Z,14.55
2022-11-13T09:12:00.536Z,13.52
2022-11-13T09:14:47.547Z,12.30
2022-11-13T09:17:34.600Z,10.98
2022-11-13T09:20:22.928Z,11.25
2022-11-13T09:23:11.046Z,11.85
2022-11-13T09:26:02.783Z,12.48
2022-11-13T09:28:49.691Z,10.55
2022-11-13T09:31:38.372Z,10.65
2022-11-13T09:34:27.355Z,10.90
2022-11-13T09:37:16.121Z,10.68
2022-11-13T09:40:03.358Z,10.00
2022-11-13T09:42:52.256Z,10.40
2022-11-13T09:45:41.551Z,9.85
2022-11-13T09:48:35.165Z,11.98
2022-11-13T09:51:27.231Z,10.38
2022-11-13T09:54:15.687Z,9.63
2022-11-13T09:57:10.596Z,11.05
2022-11-13T10:00:03.482Z,11.10
2022-11-13T10:03:07.546Z,11.85
2022-11-13T10:06:04.651Z,10.45
2022-11-13T10:08:57.547Z,11.80
2022-11-13T10:11:50.840Z,12.20
2022-11-13T10:14:43.005Z,12.60
2022-11-13T10:17:37.022Z,16.98
2022-11-13T10:20:27.116Z,31.90
2022-11-13T10:23:17.787Z,32.83
2022-11-13T10:26:14.982Z,31.33
2022-11-13T10:29:07.398Z,16.05
2022-11-13T10:31:54.917Z,13.63
2022-11-13T10:34:46.128Z,15.55
2022-11-13T10:37:47.164Z,14.80
2022-11-13T10:40:36.583Z,14.52
2022-11-13T10:43:26.795Z,14.07
2022-11-13T10:46:20.714Z,13.65
2022-11-13T10:49:15.091Z,12.63
2022-11-13T10:52:08.515Z,12.07
2022-11-13T10:55:15.627Z,13.48
2022-11-13T10:58:04.263Z,21.20
2022-11-13T11:00:52.733Z,15.70
2022-11-13T11:03:50.157Z,13.77
2022-11-13T11:09:48.863Z,12.77
2022-11-13T11:12:35.983Z,15.32
2022-11-13T11:15:27.585Z,15.23
2022-11-13T11:18:26.312Z,14.98
2022-11-13T11:21:18.139Z,15.45
2022-11-13T11:24:10.796Z,11.55
2022-11-13T11:27:06.470Z,8.77
2022-11-13T11:30:04.958Z,6.35
2022-11-13T11:32:58.840Z,4.25
2022-11-13T11:35:51.133Z,4.60
2022-11-13T11:38:47.342Z,4.43
2022-11-13T11:41:44.057Z,3.85
2022-11-13T11:44:40.636Z,4.65
2022-11-13T11:47:28.905Z,4.20
2022-11-13T11:50:20.250Z,4.22
2022-11-13T11:53:15.927Z,4.32
2022-11-13T11:56:18.116Z,4.53
2022-11-13T11:59:43.803Z,5.38
2022-11-13T12:02:58.123Z,4.90
2022-11-13T12:05:57.929Z,5.15
2022-11-13T12:08:53.707Z,4.80
2022-11-13T12:11:45.226Z,4.80
2022-11-13T12:14:41.908Z,3.50
2022-11-13T12:17:45.801Z,4.25
2022-11-13T12:20:44.191Z,2.97
2022-11-13T12:23:46.263Z,3.30
2022-11-13T12:26:38.931Z,2.55
2022-11-13T12:29:42.117Z,2.38
2022-11-13T12:32:46.983Z,3.35
2022-11-13T12:35:37.074Z,2.40
2022-11-13T12:38:34.903Z,2.40
2022-11-13T12:41:30.347Z,2.00
2022-11-13T12:56:00.355Z,2.03
2022-11-13T12:59:23.893Z,2.22
2022-11-13T13:02:27.963Z,1.98
2022-11-13T13:05:25.361Z,1.88
2022-11-13T13:08:26.972Z,2.22
2022-11-13T13:11:21.479Z,2.10
2022-11-13T13:14:47.256Z,2.10
2022-11-13T13:17:34.223Z,2.08
2022-11-13T13:20:35.008Z,2.35
2022-11-13T13:23:28.709Z,2.10
2022-11-13T13:26:21.012Z,1.90
2022-11-13T13:29:20.667Z,1.25
2022-11-13T13:32:21.130Z,1.77
2022-11-13T13:35:16.004Z,1.65
2022-11-13T13:38:12.022Z,1.80
2022-11-13T13:41:12.434Z,1.90
2022-11-13T13:44:24.449Z,1.40
2022-11-13T13:47:17.822Z,1.50
2022-11-13T13:50:08.915Z,1.60
2022-11-13T13:52:58.069Z,1.27
2022-11-13T13:55:49.923Z,1.70
2022-11-13T13:58:38.974Z,1.48
2022-11-13T14:01:31.973Z,1.75
2022-11-13T14:04:21.445Z,1.00
2022-11-13T14:07:21.832Z,1.88
2022-11-13T14:10:15.400Z,1.83
2022-11-13T14:13:02.456Z,2.00
2022-11-13T14:15:49.596Z,1.98
2022-11-13T14:18:38.135Z,2.03
2022-11-13T14:21:25.735Z,2.20
2022-11-13T14:24:18.383Z,2.17
2022-11-13T14:27:08.065Z,2.15
2022-11-13T14:29:58.186Z,1.92
2022-11-13T14:32:47.315Z,2.22
2022-11-13T14:35:36.783Z,1.60
2022-11-13T14:38:29.747Z,1.83
2022-11-13T14:41:22.870Z,2.13
2022-11-13T14:44:12.787Z,2.55
2022-11-13T14:47:04.780Z,2.30
2022-11-13T14:49:51.765Z,1.45
2022-11-13T14:52:40.281Z,2.35
2022-11-13T14:55:29.840Z,2.30
2022-11-13T14:58:28.004Z,2.92
2022-11-13T15:01:17.700Z,1.30
2022-11-13T15:04:05.330Z,1.35
2022-11-13T15:06:55.824Z,1.95
2022-11-13T15:09:44.821Z,1.20
2022-11-13T15:12:32.206Z,1.73
2022-11-13T15:15:21.751Z,1.50
2022-11-13T15:18:11.285Z,1.58
2022-11-13T15:20:58.252Z,2.08
2022-11-13T15:23:45.307Z,1.55
2022-11-13T15:26:33.924Z,2.08
2022-11-13T15:29:20.804Z,1.70
2022-11-13T15:32:11.308Z,1.73
2022-11-13T15:34:58.353Z,1.27
2022-11-13T15:37:45.690Z,1.65
2022-11-13T15:40:33.059Z,1.80
2022-11-13T15:43:21.348Z,2.58
2022-11-13T15:46:14.816Z,3.38
2022-11-13T15:49:01.862Z,2.75
2022-11-13T15:51:49.021Z,2.63
2022-11-13T15:54:39.706Z,2.50
2022-11-13T15:57:28.243Z,1.70
2022-11-13T16:00:21.445Z,2.33
2022-11-13T16:03:11.829Z,2.30
2022-11-13T16:06:00.450Z,2.00
2022-11-13T16:08:47.611Z,3.28
2022-11-13T16:11:35.916Z,4.03
2022-11-13T16:14:25.578Z,2.85
2022-11-13T16:17:16.694Z,3.28
2022-11-13T16:20:07.743Z,3.92
2022-11-13T16:22:55.136Z,2.97
2022-11-13T16:25:42.917Z,3.03
2022-11-13T16:28:34.153Z,3.15
2022-11-13T16:31:24.996Z,4.60
2022-11-13T16:34:13.285Z,5.10
2022-11-13T16:37:00.370Z,4.85
2022-11-13T16:39:47.846Z,6.28
2022-11-13T16:42:35.016Z,5.15
2022-11-13T16:45:23.589Z,4.47
2022-11-13T16:48:14.182Z,3.85
2022-11-13T16:51:05.122Z,3.42
2022-11-13T16:53:53.245Z,4.20
2022-11-13T16:56:40.539Z,4.30
2022-11-13T16:59:27.435Z,4.85
2022-11-13T17:02:16.836Z,5.30
2022-11-13T17:05:05.461Z,4.35
2022-11-13T17:07:59.080Z,3.78
2022-11-13T17:10:46.016Z,6.32
2022-11-13T17:13:33.045Z,7.75
2022-11-13T17:16:20.367Z,5.45
2022-11-13T17:19:08.872Z,4.75
2022-11-13T17:21:56.293Z,5.13
2022-11-13T17:24:44.583Z,5.07
2022-11-13T17:27:31.733Z,6.47
2022-11-13T17:30:19.133Z,7.60
2022-11-13T17:33:05.944Z,12.55
2022-11-13T17:35:56.414Z,10.45
2022-11-13T17:38:43.579Z,8.30
2022-11-13T17:41:32.363Z,7.22
2022-11-13T17:44:19.922Z,6.00
2022-11-13T17:47:06.793Z,6.03
2022-11-13T17:49:53.757Z,5.97
2022-11-13T17:52:41.644Z,4.30
2022-11-13T17:55:28.779Z,4.22
2022-11-13T17:58:17.443Z,4.15
2022-11-13T18:01:06.390Z,3.85
2022-11-13T18:03:56.978Z,4.72
2022-11-13T18:06:44.068Z,4.20
2022-11-13T18:09:31.532Z,4.80
2022-11-13T18:12:18.402Z,4.35
2022-11-13T18:15:07.537Z,3.60
2022-11-13T18:17:54.732Z,4.43
2022-11-13T18:20:42.409Z,4.60
2022-11-13T18:23:29.605Z,5.78
2022-11-13T18:26:18.279Z,3.40
2022-11-13T18:29:05.744Z,4.00
2022-11-13T18:31:54.312Z,4.90
2022-11-13T18:34:41.468Z,4.40
2022-11-13T18:37:28.274Z,2.83
2022-11-13T18:40:15.342Z,3.53
2022-11-13T18:43:02.461Z,4.03
2022-11-13T18:45:57.640Z,5.18
2022-11-13T18:48:47.540Z,6.13
2022-11-13T18:51:35.733Z,6.93
2022-11-13T18:54:22.872Z,6.15
2022-11-13T18:57:10.113Z,6.40
2022-11-13T18:59:57.133Z,5.70
2022-11-13T19:02:44.089Z,5.57
2022-11-13T19:05:32.588Z,6.25
2022-11-13T19:08:19.438Z,5.80
2022-11-13T19:11:08.436Z,7.03
2022-11-13T19:13:56.007Z,6.93
2022-11-13T19:16:43.718Z,6.70
2022-11-13T19:19:30.980Z,5.53
2022-11-13T19:22:19.844Z,5.65
2022-11-13T19:25:07.935Z,6.85
2022-11-13T19:27:55.983Z,6.35
2022-11-13T19:30:47.510Z,6.78
2022-11-13T19:33:35.023Z,8.95
2022-11-13T19:36:24.855Z,7.90
2022-11-13T19:39:13.733Z,7.07
2022-11-13T19:42:00.468Z,5.28
2022-11-13T19:44:47.541Z,6.03
2022-11-13T19:47:34.542Z,5.75
2022-11-13T19:50:21.518Z,6.45
2022-11-13T19:53:08.652Z,5.00
2022-11-13T19:55:57.196Z,5.65
2022-11-13T19:58:45.376Z,5.10
2022-11-13T20:01:33.280Z,6.65
2022-11-13T20:04:20.414Z,21.08
2022-11-13T20:07:07.438Z,15.48
2022-11-13T20:09:54.425Z,11.70
2022-11-13T20:12:42.994Z,8.35
2022-11-13T20:15:30.078Z,5.53
2022-11-13T20:18:17.179Z,6.70
2022-11-13T20:21:04.869Z,5.75
2022-11-13T20:23:53.119Z,6.47
2022-11-13T20:26:40.028Z,5.53
2022-11-13T20:29:29.038Z,5.80
2022-11-13T20:32:16.391Z,5.82
2022-11-13T20:35:03.343Z,4.63
2022-11-13T20:37:50.473Z,4.72
2022-11-13T20:40:37.464Z,5.25
2022-11-13T20:43:24.525Z,4.85
2022-11-13T20:46:14.629Z,4.95
2022-11-13T20:49:02.426Z,4.35
2022-11-13T20:51:53.434Z,4.15
2022-11-13T20:54:42.784Z,4.22
2022-11-13T20:57:29.896Z,4.90
2022-11-13T21:00:17.514Z,4.50
2022-11-13T21:03:06.028Z,4.47
2022-11-13T21:05:53.124Z,4.53
2022-11-13T21:08:40.839Z,4.88
2022-11-13T21:11:29.224Z,4.57
2022-11-13T21:14:16.825Z,4.95
2022-11-13T21:17:03.909Z,4.45
2022-11-13T21:19:57.425Z,4.72
2022-11-13T21:22:45.128Z,5.25
2022-11-13T21:25:32.543Z,5.38
2022-11-13T21:28:24.071Z,4.90
2022-11-13T21:31:15.384Z,4.72
2022-11-13T21:34:02.474Z,4.45
2022-11-13T21:36:50.890Z,5.05
2022-11-13T21:39:38.606Z,5.50
2022-11-13T21:42:25.766Z,4.75
2022-11-13T21:45:13.143Z,4.72
2022-11-13T21:48:00.141Z,4.80
2022-11-13T21:50:47.197Z,4.70
2022-11-13T21:53:35.732Z,4.85
2022-11-13T21:56:22.512Z,4.22
2022-11-13T21:59:10.173Z,3.95
2022-11-13T22:01:57.275Z,4.20
2022-11-13T22:04:44.245Z,5.05
2022-11-13T22:07:31.695Z,3.85
2022-11-13T22:10:20.517Z,4.00
2022-11-13T22:13:07.676Z,3.53
2022-11-13T22:15:55.756Z,3.92
2022-11-13T22:18:42.898Z,3.22
2022-11-13T22:21:30.674Z,2.67
2022-11-13T22:24:19.677Z,1.30
2022-11-13T22:27:08.061Z,1.55
2022-11-13T22:29:55.246Z,0.90
2022-11-13T22:32:42.222Z,0.60
2022-11-13T22:35:29.058Z,0.57
2022-11-13T22:38:16.822Z,0.50
2022-11-13T22:41:05.261Z,0.70
2022-11-13T22:43:56.200Z,0.50
2022-11-13T22:46:43.336Z,0.40
2022-11-13T22:49:30.868Z,0.47
2022-11-13T22:52:17.975Z,0.40
2022-11-13T22:55:05.155Z,0.30
2022-11-13T22:57:52.355Z,0.43
2022-11-13T23:00:40.768Z,0.30
2022-11-13T23:03:28.302Z,1.02
2022-11-13T23:06:18.305Z,0.50
2022-11-13T23:09:06.172Z,0.40
2022-11-13T23:11:54.031Z,0.38
2022-11-13T23:14:41.103Z,0.30
2022-11-13T23:17:29.464Z,0.50
2022-11-13T23:20:16.820Z,0.40
2022-11-13T23:23:03.826Z,0.50
2022-11-13T23:25:50.711Z,0.50
2022-11-13T23:28:38.386Z,0.50
2022-11-13T23:31:28.951Z,0.70
2022-11-13T23:34:38.453Z,0.60
2022-11-13T23:37:25.920Z,0.75
2022-11-13T23:40:17.428Z,0.77
2022-11-13T23:43:04.399Z,1.20
2022-11-13T23:45:55.799Z,1.10
2022-11-13T23:48:43.049Z,0.70
2022-11-13T23:51:31.821Z,0.80
2022-11-13T23:54:19.027Z,0.60
2022-11-13T23:57:06.142Z,0.80
2022-11-13T23:59:53.523Z,0.75
